Time;durP1;ratioP1;P1;durP2;ratioP2;P2;SDS_P1;SDS_P2;PMS_P1;PMS_P2;Temp;Humidity;BMP_temperature;BMP_pressure;BME280_temperature;BME280_humidity;BME280_pressure;Samples;Min_cycle;Max_cycle;Signal;HPM_P1;HPM_P2
2023/04/25 00:02:46;;;;;;;;;;;;;;;9.17;89.01;100022.91;5076473;28;19946;-68
2023/04/25 00:05:50;;;;;;;;;;;;;;;9.15;88.95;100030.78;5076693;28;19923;-68
2023/04/25 00:08:53;;;;;;;;;;;;;;;9.13;88.54;100029.22;5076343;28;19961;-68
2023/04/25 00:11:57;;;;;;;;;;;;;;;9.08;89.43;100032.03;5076292;28;20419;-68
2023/04/25 00:15:00;;;;;;;;;;;;;;;9.07;88.94;100032.97;5076588;28;19922;-68
2023/04/25 00:18:03;;;;;;;;;;;;;;;9.04;88.50;100033.16;5076313;28;20293;-68
2023/04/25 00:21:06;;;;;;;;;;;;;;;8.96;88.88;100036.16;5076389;28;19924;-68
2023/04/25 00:24:09;;;;;;;;;;;;;;;8.93;88.97;100035.47;5075933;28;19965;-68
2023/04/25 00:27:12;;;;;;;;;;;;;;;8.87;89.46;100034.06;5076127;28;19962;-68
2023/04/25 00:30:15;;;;;;;;;;;;;;;8.89;88.90;100036.56;5063698;28;19985;-68
2023/04/25 00:33:18;;;;;;;;;;;;;;;8.79;88.86;100034.44;5076054;28;20025;-68
2023/04/25 00:36:22;;;;;;;;;;;;;;;8.77;89.00;100036.28;5076146;28;20311;-68
2023/04/25 00:39:24;;;;;;;;;;;;;;;8.78;88.34;100034.53;5075905;28;20346;-69
2023/04/25 00:42:28;;;;;;;;;;;;;;;8.79;88.26;100034.44;5063419;28;19979;-68
2023/04/25 00:45:31;;;;;;;;;;;;;;;8.75;88.21;100032.09;5062749;28;20340;-68
2023/04/25 00:48:34;;;;;;;;;;;;;;;8.65;89.01;100026.53;5075720;28;19927;-68
2023/04/25 00:51:37;;;;;;;;;;;;;;;8.69;88.91;100020.22;5075670;28;19923;-68
2023/04/25 00:54:40;;;;;;;;;;;;;;;8.68;88.12;100020.28;5075584;28;19978;-68
2023/04/25 00:57:43;;;;;;;;;;;;;;;8.63;88.04;100028.34;5062921;28;20455;-68
2023/04/25 01:00:47;;;;;;;;;;;;;;;8.50;88.59;100017.72;5063079;28;19939;-68
2023/04/25 01:03:50;;;;;;;;;;;;;;;8.54;88.86;100019.25;5075375;28;19975;-68
2023/04/25 01:06:54;;;;;;;;;;;;;;;8.54;87.24;100014.03;5062910;28;20399;-68
2023/04/25 01:09:57;;;;;;;;;;;;;;;8.44;87.99;100023.25;5063004;28;19924;-69
2023/04/25 01:13:00;;;;;;;;;;;;;;;8.46;87.98;100025.78;5075340;28;19924;-70
2023/04/25 01:16:04;;;;;;;;;;;;;;;8.49;87.45;100026.47;5062732;28;19966;-69
2023/04/25 01:19:12;;;;;;;;;;;;;;;8.49;87.20;100029.06;5062796;28;19923;-68
2023/04/25 01:22:15;;;;;;;;;;;;;;;8.43;86.91;100024.19;5075128;28;19928;-69
2023/04/25 01:25:18;;;;;;;;;;;;;;;8.40;87.27;100023.50;5075051;28;19927;-69
2023/04/25 01:28:22;;;;;;;;;;;;;;;8.34;87.09;100024.63;5062690;28;19983;-69
2023/04/25 01:31:26;;;;;;;;;;;;;;;8.31;87.85;100025.59;5062554;28;19927;-69
2023/04/25 01:34:29;;;;;;;;;;;;;;;8.30;87.72;100025.69;5062660;28;19970;-69
2023/04/25 01:37:36;;;;;;;;;;;;;;;8.25;88.18;100027.69;5062536;28;20280;-69
2023/04/25 01:40:40;;;;;;;;;;;;;;;8.24;87.41;100031.22;5074795;28;20463;-69
2023/04/25 01:43:43;;;;;;;;;;;;;;;8.14;87.03;100034.28;5062323;28;20347;-69
2023/04/25 01:46:46;;;;;;;;;;;;;;;7.86;87.19;100037.41;5074698;28;19962;-69
2023/04/25 01:49:49;;;;;;;;;;;;;;;7.86;87.89;100036.56;5062118;28;19970;-69
2023/04/25 01:52:52;;;;;;;;;;;;;;;7.89;87.22;100052.03;5062204;28;20134;-69
2023/04/25 01:55:56;;;;;;;;;;;;;;;7.86;87.15;100033.94;5061698;28;20399;-70
2023/04/25 01:59:02;;;;;;;;;;;;;;;7.82;86.62;100040.22;5062096;28;19942;-69
2023/04/25 02:02:17;;;;;;;;;;;;;;;7.76;85.94;100040.53;5074393;28;20016;-69
2023/04/25 02:05:20;;;;;;;;;;;;;;;7.67;86.39;100042.66;5061877;28;19946;-69
2023/04/25 02:08:25;;;;;;;;;;;;;;;7.56;86.49;100050.13;5061837;28;19970;-69
2023/04/25 02:11:31;;;;;;;;;;;;;;;7.52;86.73;100047.72;5061804;28;20007;-69
2023/04/25 02:14:54;;;;;;;;;;;;;;;7.46;86.61;100048.84;5061741;28;20054;-69
2023/04/25 02:18:15;;;;;;;;;;;;;;;7.45;85.96;100052.38;5061920;28;19923;-69
2023/04/25 02:21:18;;;;;;;;;;;;;;;7.39;85.30;100043.09;5061622;28;19923;-69
2023/04/25 02:24:22;;;;;;;;;;;;;;;7.32;84.77;100040.88;5061437;28;19927;-68
2023/04/25 02:27:25;;;;;;;;;;;;;;;7.08;85.18;100042.81;5061508;28;19922;-69
2023/04/25 02:30:28;;;;;;;;;;;;;;;6.95;85.85;100042.53;5061378;28;20054;-69
2023/04/25 02:33:35;;;;;;;;;;;;;;;6.85;86.68;100046.47;5074163;28;19986;-69
2023/04/25 02:36:38;;;;;;;;;;;;;;;6.83;86.37;100040.47;5073718;28;19939;-69
2023/04/25 02:39:41;;;;;;;;;;;;;;;6.91;86.59;100036.63;5074007;28;19942;-68
2023/04/25 02:42:45;;;;;;;;;;;;;;;6.95;85.23;100047.75;5061224;28;19928;-68
2023/04/25 02:45:48;;;;;;;;;;;;;;;6.84;85.14;100047.38;5061198;28;19924;-68
2023/04/25 02:48:51;;;;;;;;;;;;;;;6.82;85.19;100042.25;5073548;28;20288;-68
2023/04/25 02:51:54;;;;;;;;;;;;;;;6.81;85.26;100044.94;5073434;28;19969;-68
2023/04/25 02:54:57;;;;;;;;;;;;;;;6.80;85.53;100053.66;5072885;28;19923;-68
2023/04/25 02:58:00;;;;;;;;;;;;;;;6.79;85.36;100046.75;5052177;28;19963;-68
2023/04/25 03:01:17;;;;;;;;;;;;;;;6.92;84.81;100055.66;5052240;28;19924;-69
2023/04/25 03:04:20;;;;;;;;;;;;;;;6.90;84.18;100060.13;5052197;28;20423;-68
2023/04/25 03:07:24;;;;;;;;;;;;;;;6.85;83.84;100062.06;5051468;28;19970;-68
2023/04/25 03:10:27;;;;;;;;;;;;;;;6.80;84.27;100053.66;5052383;28;19975;-68
2023/04/25 03:13:31;;;;;;;;;;;;;;;6.73;84.13;100051.31;5052390;28;19923;-68
2023/04/25 03:16:34;;;;;;;;;;;;;;;6.69;84.20;100056.69;5052265;28;20423;-69
2023/04/25 03:19:38;;;;;;;;;;;;;;;6.45;84.81;100062.06;5052921;28;19923;-67
2023/04/25 03:22:41;;;;;;;;;;;;;;;6.25;85.66;100068.09;5052051;28;19928;-68
2023/04/25 03:25:44;;;;;;;;;;;;;;;6.22;85.93;100068.22;5052124;28;19969;-67
2023/04/25 03:28:47;;;;;;;;;;;;;;;6.28;85.97;100062.75;5052057;28;19923;-68
2023/04/25 03:31:50;;;;;;;;;;;;;;;6.38;86.33;100062.34;5051989;28;19962;-68
2023/04/25 03:34:53;;;;;;;;;;;;;;;6.42;85.78;100059.56;5051939;28;19927;-68
2023/04/25 03:37:57;;;;;;;;;;;;;;;6.50;84.92;100057.47;5050971;28;19928;-68
2023/04/25 03:41:05;;;;;;;;;;;;;;;6.51;85.12;100068.75;5051949;28;20400;-68
2023/04/25 03:44:17;;;;;;;;;;;;;;;6.44;84.15;100072.47;5051860;28;19966;-72
2023/04/25 03:47:20;;;;;;;;;;;;;;;6.37;84.41;100081.44;5051924;28;19924;-69
2023/04/25 03:50:24;;;;;;;;;;;;;;;6.44;84.69;100075.09;5051856;28;19940;-70
2023/04/25 03:53:27;;;;;;;;;;;;;;;6.47;84.59;100072.34;5052677;28;19923;-69
2023/04/25 03:56:59;;;;;;;;;;;;;;;6.51;84.26;100073.94;5062307;28;19965;-68
2023/04/25 04:00:06;;;;;;;;;;;;;;;6.49;84.46;100081.78;5060590;28;20288;-69
2023/04/25 04:03:16;;;;;;;;;;;;;;;6.55;84.12;100075.47;5072450;28;19927;-68
2023/04/25 04:06:20;;;;;;;;;;;;;;;6.61;84.39;100075.22;5060189;28;19969;-69
2023/04/25 04:09:27;;;;;;;;;;;;;;;6.55;84.46;100080.69;5060129;28;19965;-69
2023/04/25 04:12:31;;;;;;;;;;;;;;;6.48;84.49;100084.44;5060123;28;19923;-71
2023/04/25 04:15:34;;;;;;;;;;;;;;;6.45;84.75;100081.97;5048754;28;19923;-68
2023/04/25 04:18:37;;;;;;;;;;;;;;;6.21;85.55;100091.63;5061768;28;19962;-69
2023/04/25 04:21:40;;;;;;;;;;;;;;;5.85;86.67;100092.19;5076125;28;19973;-69
2023/04/25 04:24:46;;;;;;;;;;;;;;;5.95;87.29;100105.66;5063548;28;20395;-68
2023/04/25 04:27:54;;;;;;;;;;;;;;;5.86;86.99;100104.25;5063562;28;19966;-70
2023/04/25 04:31:07;;;;;;;;;;;;;;;5.93;86.93;100100.53;5076186;28;19942;-69
2023/04/25 04:34:11;;;;;;;;;;;;;;;5.86;87.08;100111.19;5076234;28;19923;-70
2023/04/25 04:37:15;;;;;;;;;;;;;;;5.85;87.83;100099.13;5063350;28;19974;-69
2023/04/25 04:40:20;;;;;;;;;;;;;;;6.03;87.30;100103.59;5063744;28;20334;-70
2023/04/25 04:43:33;;;;;;;;;;;;;;;6.15;87.05;100105.69;5075697;28;19942;-70
2023/04/25 04:46:46;;;;;;;;;;;;;;;6.31;86.31;100105.06;5063147;28;20050;-70
2023/04/25 04:50:09;;;;;;;;;;;;;;;6.36;86.03;100101.38;5063371;28;19923;-70
2023/04/25 04:53:37;;;;;;;;;;;;;;;6.42;85.56;100110.69;5075427;28;20002;-70
2023/04/25 04:57:10;;;;;;;;;;;;;;;6.46;85.97;100125.22;5061290;28;19966;-70
2023/04/25 05:00:58;;;;;;;;;;;;;;;6.51;85.77;100118.94;5070296;28;19923;-70
2023/04/25 05:04:44;;;;;;;;;;;;;;;6.51;86.14;100131.06;5053056;28;20396;-69
2023/04/25 05:11:51;;;;;;;;;;;;;;;6.53;86.63;100134.44;5075662;28;19974;-69
2023/04/25 05:15:16;;;;;;;;;;;;;;;6.66;86.41;100138.19;5062855;28;19970;-69
2023/04/25 05:18:30;;;;;;;;;;;;;;;6.71;86.25;100135.44;5075286;28;19923;-69
2023/04/25 05:22:11;;;;;;;;;;;;;;;6.78;85.64;100128.22;5068639;28;19939;-69
2023/04/25 05:25:29;;;;;;;;;;;;;;;6.87;85.63;100127.81;5063081;28;19927;-69
2023/04/25 05:28:50;;;;;;;;;;;;;;;6.93;85.58;100127.56;5062981;28;20335;-69
2023/04/25 05:32:20;;;;;;;;;;;;;;;6.74;86.13;100143.94;5063131;28;19924;-69
2023/04/25 05:35:29;;;;;;;;;;;;;;;6.84;85.90;100143.53;5063118;28;19963;-69
2023/04/25 05:38:54;;;;;;;;;;;;;;;6.85;86.22;100147.81;5075161;28;19939;-69
2023/04/25 05:42:19;;;;;;;;;;;;;;;7.01;86.48;100137.59;5074777;28;19927;-69
2023/04/25 05:45:43;;;;;;;;;;;;;;;6.99;86.43;100143.72;5062454;28;19927;-69
2023/04/25 05:49:13;;;;;;;;;;;;;;;6.86;87.63;100141.69;5074692;28;19923;-70
2023/04/25 05:52:46;;;;;;;;;;;;;;;7.12;87.34;100133.63;5072659;28;19964;-70
2023/04/25 05:56:08;;;;;;;;;;;;;;;7.29;86.66;100140.69;5059945;28;19958;-70
2023/04/25 05:59:11;;;;;;;;;;;;;;;7.40;86.00;100138.44;5074404;28;19923;-69
2023/04/25 06:02:28;;;;;;;;;;;;;;;;;;;;;
2023/04/25 06:06:04;;;;;;;;;;;;;;;7.57;86.02;100140.28;5050058;28;19928;-69
2023/04/25 06:09:22;;;;;;;;;;;;;;;7.67;85.20;100148.50;5074092;28;19922;-69
2023/04/25 06:12:25;;;;;;;;;;;;;;;7.41;79.21;100149.69;5061482;28;19971;-69
2023/04/25 06:15:29;;;;;;;;;;;;;;;7.32;78.49;100155.31;5061534;28;20406;-69
2023/04/25 06:18:33;;;;;;;;;;;;;;;7.39;81.06;100161.91;5061481;28;19923;-69
2023/04/25 06:21:36;;;;;;;;;;;;;;;7.28;78.96;100151.16;5061345;28;19923;-69
2023/04/25 06:24:39;;;;;;;;;;;;;;;7.16;76.72;100155.97;5061196;28;19974;-69
2023/04/25 06:27:43;;;;;;;;;;;;;;;7.35;78.05;100153.41;5060778;28;19924;-69
2023/04/25 06:30:46;;;;;;;;;;;;;;;7.27;77.00;100152.06;5061471;28;19962;-69
2023/04/25 06:33:55;;;;;;;;;;;;;;;7.31;77.44;100164.03;5061177;28;19923;-68
2023/04/25 06:37:00;;;;;;;;;;;;;;;7.39;77.78;100170.56;5061039;28;19939;-69
2023/04/25 06:40:04;;;;;;;;;;;;;;;7.55;77.32;100173.31;5060953;28;19924;-69
2023/04/25 06:43:07;;;;;;;;;;;;;;;7.63;75.59;100167.78;5061174;28;20441;-69
2023/04/25 06:46:42;;;;;;;;;;;;;;;7.80;76.57;100167.00;5049724;28;19970;-69
2023/04/25 06:49:45;;;;;;;;;;;;;;;7.97;76.50;100172.25;5073152;28;19923;-69
2023/04/25 06:52:48;;;;;;;;;;;;;;;8.08;76.00;100177.78;5059951;28;20402;-69
2023/04/25 06:55:52;;;;;;;;;;;;;;;8.04;73.56;100180.59;5059086;28;19923;-69
2023/04/25 06:59:00;;;;;;;;;;;;;;;8.00;73.77;100189.47;5060699;28;19951;-69
2023/04/25 07:02:09;;;;;;;;;;;;;;;8.15;74.93;100189.59;5060624;28;19923;-69
2023/04/25 07:05:12;;;;;;;;;;;;;;;8.06;74.09;100189.19;5060646;28;19928;-69
2023/04/25 07:08:14;;;;;;;;;;;;;;;7.91;72.38;100185.53;5060651;28;20399;-70
2023/04/25 07:11:18;;;;;;;;;;;;;;;8.02;73.34;100192.88;5060932;28;20284;-70
2023/04/25 07:14:22;;;;;;;;;;;;;;;8.07;72.96;100196.09;5060944;28;19931;-70
2023/04/25 07:17:26;;;;;;;;;;;;;;;8.00;72.78;100199.91;5060696;28;19923;-70
2023/04/25 07:20:30;;;;;;;;;;;;;;;8.05;72.85;100201.38;5073153;28;19923;-71
2023/04/25 07:23:34;;;;;;;;;;;;;;;7.76;71.80;100207.09;5060608;28;19975;-72
2023/04/25 07:26:43;;;;;;;;;;;;;;;7.76;71.95;100218.34;5060747;28;19967;-71
2023/04/25 07:29:59;;;;;;;;;;;;;;;7.71;72.24;100209.06;5060618;28;19924;-70
2023/04/25 07:33:02;;;;;;;;;;;;;;;7.76;71.70;100217.50;5073333;28;19939;-70
2023/04/25 07:36:05;;;;;;;;;;;;;;;7.83;72.68;100213.69;5060602;28;19961;-70
2023/04/25 07:39:09;;;;;;;;;;;;;;;8.02;72.23;100222.34;5060341;28;19962;-68
2023/04/25 07:42:12;;;;;;;;;;;;;;;8.08;70.89;100219.47;5060189;28;20032;-68
2023/04/25 07:45:19;;;;;;;;;;;;;;;7.80;69.77;100226.84;5060328;28;19928;-69
2023/04/25 07:48:22;;;;;;;;;;;;;;;7.66;71.10;100225.72;5060670;28;20292;-69
2023/04/25 07:51:28;;;;;;;;;;;;;;;7.87;72.83;100229.09;5049687;28;19970;-69
2023/04/25 07:54:35;;;;;;;;;;;;;;;8.07;73.10;100228.19;5063702;28;19940;-69
2023/04/25 07:57:46;;;;;;;;;;;;;;;8.26;72.34;100227.31;5063950;28;19927;-69
2023/04/25 08:00:50;;;;;;;;;;;;;;;8.14;68.86;100236.56;5064184;28;19989;-69
2023/04/25 08:04:12;;;;;;;;;;;;;;;8.22;67.90;100230.97;5076634;28;19989;-69
2023/04/25 08:07:35;;;;;;;;;;;;;;;8.19;68.22;100237.19;5064127;28;19970;-69
2023/04/25 08:10:41;;;;;;;;;;;;;;;8.35;68.17;100250.31;5064357;28;19923;-70
2023/04/25 08:13:45;;;;;;;;;;;;;;;8.38;67.33;100247.59;5064176;28;19942;-70
2023/04/25 08:16:49;;;;;;;;;;;;;;;8.36;68.21;100249.44;5064165;28;19939;-70
2023/04/25 08:19:52;;;;;;;;;;;;;;;8.36;66.86;100252.03;5063930;28;20414;-70
2023/04/25 08:23:03;;;;;;;;;;;;;;;8.07;66.27;100258.56;5063741;28;19971;-70
2023/04/25 08:26:41;;;;;;;;;;;;;;;8.34;67.43;100252.09;4998123;28;19928;-70
2023/04/25 08:29:47;;;;;;;;;;;;;;;8.59;67.54;100253.56;5063867;28;20011;-70
2023/04/25 08:32:51;;;;;;;;;;;;;;;8.78;66.43;100256.97;5062960;28;19927;-70
2023/04/25 08:36:12;;;;;;;;;;;;;;;9.00;66.01;100261.97;5062662;28;20278;-70
2023/04/25 08:39:16;;;;;;;;;;;;;;;9.10;65.64;100266.72;5062346;28;20335;-70
2023/04/25 08:42:35;;;;;;;;;;;;;;;9.02;64.13;100278.34;5062651;28;19924;-70
2023/04/25 08:45:42;;;;;;;;;;;;;;;8.64;62.66;100274.19;5062528;28;20392;-69
2023/04/25 08:48:53;;;;;;;;;;;;;;;8.75;63.85;100271.91;5062910;28;19924;-69
2023/04/25 08:51:59;;;;;;;;;;;;;;;8.92;62.12;100269.31;5063226;28;19923;-69
2023/04/25 08:55:03;;;;;;;;;;;;;;;9.15;62.76;100278.59;5051739;28;19923;-69
2023/04/25 08:58:07;;;;;;;;;;;;;;;9.28;61.88;100284.03;5062555;28;19931;-69
2023/04/25 09:01:10;;;;;;;;;;;;;;;9.31;60.59;100286.47;5075219;28;19998;-70
2023/04/25 09:04:22;;;;;;;;;;;;;;;9.47;61.94;100291.75;5061586;28;19931;-70
2023/04/25 09:07:29;;;;;;;;;;;;;;;9.48;61.91;100299.53;5063075;28;20300;-71
2023/04/25 09:10:35;;;;;;;;;;;;;;;9.54;60.74;100309.66;5063171;28;19979;-71
2023/04/25 09:13:38;;;;;;;;;;;;;;;9.41;58.40;100298.16;5063273;28;19923;-70
2023/04/25 09:17:04;;;;;;;;;;;;;;;9.35;59.65;100303.69;5063220;28;19976;-70
2023/04/25 09:20:19;;;;;;;;;;;;;;;9.36;58.62;100304.53;5062744;28;20402;-70
2023/04/25 09:23:23;;;;;;;;;;;;;;;9.53;59.74;100310.56;5062698;28;19943;-70
2023/04/25 09:26:28;;;;;;;;;;;;;;;9.45;58.68;100314.50;5062747;28;19924;-70
2023/04/25 09:29:31;;;;;;;;;;;;;;;9.31;57.13;100318.63;5062941;28;19924;-70
2023/04/25 09:32:35;;;;;;;;;;;;;;;9.31;58.33;100323.00;5062541;28;19923;-69
2023/04/25 09:35:40;;;;;;;;;;;;;;;9.41;59.22;100329.47;5074775;28;19926;-69
2023/04/25 09:38:45;;;;;;;;;;;;;;;9.06;56.94;100333.81;5062293;28;20012;-69
2023/04/25 09:41:56;;;;;;;;;;;;;;;9.18;58.64;100337.59;5062119;28;19922;-70
2023/04/25 09:45:01;;;;;;;;;;;;;;;9.05;57.64;100346.00;5062082;28;19926;-69
2023/04/25 09:48:06;;;;;;;;;;;;;;;9.14;58.53;100342.13;5062182;28;19924;-68
2023/04/25 09:51:13;;;;;;;;;;;;;;;9.06;57.86;100350.34;5061943;28;19923;-70
2023/04/25 09:54:18;;;;;;;;;;;;;;;9.20;58.53;100354.88;5062372;28;19970;-69
2023/04/25 09:57:24;;;;;;;;;;;;;;;9.22;58.55;100355.63;5053401;28;19971;-69
2023/04/25 10:00:30;;;;;;;;;;;;;;;9.26;58.38;100369.38;5053546;28;19943;-69
2023/04/25 10:03:34;;;;;;;;;;;;;;;9.35;57.31;100366.31;5054140;28;19928;-70
2023/04/25 10:06:57;;;;;;;;;;;;;;;9.40;57.86;100371.28;5053668;28;20381;-70
2023/04/25 10:10:02;;;;;;;;;;;;;;;9.41;55.74;100371.22;5053270;28;19943;-69
2023/04/25 10:13:06;;;;;;;;;;;;;;;9.31;54.34;100377.81;5054066;28;19924;-70
2023/04/25 10:16:09;;;;;;;;;;;;;;;9.31;57.41;100380.41;5053763;28;20047;-70
2023/04/25 10:19:13;;;;;;;;;;;;;;;9.38;56.25;100378.34;5054109;28;19940;-70
2023/04/25 10:22:34;;;;;;;;;;;;;;;9.29;55.50;100383.13;5054191;28;19923;-70
2023/04/25 10:25:37;;;;;;;;;;;;;;;9.41;57.21;100375.59;5054125;28;19943;-69
2023/04/25 10:29:00;;;;;;;;;;;;;;;9.23;54.70;100382.56;5054083;28;20344;-69
2023/04/25 10:32:03;;;;;;;;;;;;;;;9.14;54.68;100365.59;5053685;28;19986;-70
2023/04/25 10:35:17;;;;;;;;;;;;;;;9.50;55.47;100390.78;5053553;28;20024;-70
2023/04/25 10:38:20;;;;;;;;;;;;;;;9.46;53.37;100382.28;5053686;28;20012;-69
2023/04/25 10:41:23;;;;;;;;;;;;;;;9.42;54.18;100380.75;5053599;28;19924;-70
2023/04/25 10:44:27;;;;;;;;;;;;;;;9.79;52.14;100373.66;5053684;28;19975;-70
2023/04/25 10:47:34;;;;;;;;;;;;;;;10.12;54.35;100373.69;5053801;28;19970;-71
2023/04/25 10:50:39;;;;;;;;;;;;;;;10.22;50.83;100374.03;5053456;28;19924;-68
2023/04/25 10:53:46;;;;;;;;;;;;;;;10.08;50.53;100376.50;5053061;28;19974;-70
2023/04/25 10:56:50;;;;;;;;;;;;;;;10.15;51.29;100377.91;5061362;28;20434;-69
2023/04/25 10:59:54;;;;;;;;;;;;;;;10.19;51.07;100376.81;5072988;28;19931;-69
2023/04/25 11:02:59;;;;;;;;;;;;;;;9.92;49.30;100384.31;5072941;28;19941;-70
2023/04/25 11:06:02;;;;;;;;;;;;;;;9.82;49.60;100386.53;5060865;28;19967;-69
2023/04/25 11:09:10;;;;;;;;;;;;;;;9.85;49.65;100381.16;5073002;28;19924;-70
2023/04/25 11:12:13;;;;;;;;;;;;;;;10.20;51.86;100391.53;5073120;28;19939;-70
2023/04/25 11:15:16;;;;;;;;;;;;;;;10.31;52.50;100384.03;5072979;28;20392;-74
2023/04/25 11:18:20;;;;;;;;;;;;;;;10.34;51.91;100393.44;5072895;28;19924;-82
2023/04/25 11:21:25;;;;;;;;;;;;;;;10.35;52.11;100405.63;5073067;28;19969;-77
2023/04/25 11:24:29;;;;;;;;;;;;;;;10.27;51.98;100416.44;5072825;28;19931;-77
2023/04/25 11:27:32;;;;;;;;;;;;;;;10.20;53.33;100418.50;5072251;28;19970;-79
2023/04/25 11:30:35;;;;;;;;;;;;;;;10.22;53.79;100426.28;5072692;28;20339;-76
2023/04/25 11:33:38;;;;;;;;;;;;;;;10.12;53.79;100428.53;5072835;28;20339;-76
2023/04/25 11:36:42;;;;;;;;;;;;;;;10.16;53.29;100421.38;5072754;28;20334;-86
2023/04/25 11:39:46;;;;;;;;;;;;;;;10.06;52.81;100425.41;5072697;28;19924;-75
2023/04/25 11:42:49;;;;;;;;;;;;;;;10.01;52.23;100421.22;5072617;28;19924;-78
2023/04/25 11:45:52;;;;;;;;;;;;;;;9.93;52.64;100418.19;5072966;28;20046;-78
2023/04/25 11:48:55;;;;;;;;;;;;;;;10.08;52.16;100413.94;5072576;28;19927;-72
2023/04/25 11:51:59;;;;;;;;;;;;;;;10.05;50.49;100405.41;5072687;28;19945;-70
2023/04/25 11:55:05;;;;;;;;;;;;;;;9.90;50.99;100415.75;5072603;28;20000;-72
2023/04/25 11:58:08;;;;;;;;;;;;;;;9.98;50.45;100408.34;5072404;28;20005;-74
2023/04/25 12:01:11;;;;;;;;;;;;;;;10.07;49.17;100398.34;5072689;28;19970;-73
2023/04/25 12:04:15;;;;;;;;;;;;;;;9.72;50.16;100403.59;5072474;28;19928;-73
2023/04/25 12:07:21;;;;;;;;;;;;;;;9.72;50.05;100408.84;5072142;28;19923;-72
2023/04/25 12:10:25;;;;;;;;;;;;;;;9.81;49.51;100405.75;5072575;28;19927;-71
2023/04/25 12:13:28;;;;;;;;;;;;;;;10.28;50.34;100409.47;5072593;28;20372;-70
2023/04/25 12:16:45;;;;;;;;;;;;;;;10.26;49.80;100406.94;5072491;28;19924;-71
2023/04/25 12:19:48;;;;;;;;;;;;;;;10.19;49.02;100418.59;5072238;28;19969;-71
2023/04/25 12:22:51;;;;;;;;;;;;;;;10.13;49.34;100438.06;5072299;28;19981;-71
2023/04/25 12:25:55;;;;;;;;;;;;;;;10.01;48.85;100430.84;5072307;28;20005;-70
2023/04/25 12:28:58;;;;;;;;;;;;;;;10.19;49.34;100418.59;5072251;28;19983;-70
2023/04/25 12:35:38;;;;;;;;;;;;;;;9.93;46.06;100431.25;5066698;28;19939;-72
2023/04/25 12:38:41;;;;;;;;;;;;;;;10.10;47.51;100426.94;5072665;28;20284;-69
2023/04/25 12:41:46;;;;;;;;;;;;;;;10.13;46.35;100419.78;5074026;28;20387;-70
2023/04/25 12:44:49;;;;;;;;;;;;;;;10.06;46.28;100431.47;5074482;28;20053;-70
2023/04/25 12:47:52;;;;;;;;;;;;;;;10.03;46.69;100429.00;5075368;28;20019;-69
2023/04/25 12:50:55;;;;;;;;;;;;;;;10.02;46.88;100436.00;5075738;28;19927;-69
2023/04/25 12:53:59;;;;;;;;;;;;;;;10.11;46.83;100439.06;5075724;28;19923;-69
2023/04/25 12:57:03;;;;;;;;;;;;;;;10.14;46.86;100428.44;5075183;28;19927;-69
2023/04/25 13:00:08;;;;;;;;;;;;;;;10.15;47.55;100444.06;5075872;28;20386;-70
2023/04/25 13:03:12;;;;;;;;;;;;;;;10.22;47.83;100437.59;5075394;28;19923;-70
2023/04/25 13:06:15;;;;;;;;;;;;;;;10.43;47.37;100433.03;5075509;28;19964;-69
2023/04/25 13:09:18;;;;;;;;;;;;;;;10.87;46.37;100434.16;5075301;28;20300;-69
2023/04/25 13:12:21;;;;;;;;;;;;;;;11.11;46.82;100437.22;5074093;28;19923;-69
2023/04/25 13:15:23;;;;;;;;;;;;;;;11.41;44.54;100429.38;5075327;28;20339;-69
2023/04/25 13:18:27;;;;;;;;;;;;;;;11.83;43.82;100435.69;5074780;28;19924;-69
2023/04/25 13:21:32;;;;;;;;;;;;;;;12.21;44.69;100433.41;5074076;28;19923;-69
2023/04/25 13:24:35;;;;;;;;;;;;;;;11.91;42.16;100430.03;5072851;28;19947;-69
2023/04/25 13:27:40;;;;;;;;;;;;;;;11.34;42.60;100444.59;5071590;28;19971;-69
2023/04/25 13:30:43;;;;;;;;;;;;;;;10.97;43.24;100450.19;5059096;28;19943;-69
2023/04/25 13:33:45;;;;;;;;;;;;;;;10.79;43.46;100447.66;5053289;28;19982;-69
2023/04/25 13:41:17;;;;;;;;;;;;;;;10.85;44.59;100463.03;5054800;28;20059;-69
2023/04/25 13:44:21;;;;;;;;;;;;;;;10.62;44.01;100466.88;5054345;28;20515;-69
2023/04/25 13:47:27;;;;;;;;;;;;;;;10.28;43.57;100473.03;5052902;28;19934;-70
2023/04/25 13:50:31;;;;;;;;;;;;;;;10.09;43.85;100470.50;5053587;28;19962;-69
2023/04/25 13:53:36;;;;;;;;;;;;;;;10.23;45.40;100475.00;5054004;28;19974;-71
2023/04/25 13:56:48;;;;;;;;;;;;;;;10.43;45.72;100467.03;5054508;28;19931;-71
2023/04/25 13:59:52;;;;;;;;;;;;;;;10.62;46.52;100477.31;5052896;28;19927;-71
2023/04/25 14:02:55;;;;;;;;;;;;;;;10.56;46.06;100476.81;5041007;28;19924;-70
2023/04/25 14:05:58;;;;;;;;;;;;;;;10.73;46.72;100474.16;5053667;28;19928;-70
2023/04/25 14:09:03;;;;;;;;;;;;;;;11.04;46.43;100475.09;5053931;28;20293;-71
2023/04/25 14:12:08;;;;;;;;;;;;;;;11.84;44.87;100468.81;5052821;28;21593;-70
2023/04/25 14:15:11;;;;;;;;;;;;;;;14.81;40.62;100459.34;5053989;28;19969;-72
2023/04/25 14:18:14;;;;;;;;;;;;;;;14.01;38.29;100470.09;5053743;28;20000;-70
2023/04/25 14:21:17;;;;;;;;;;;;;;;13.94;38.50;100474.06;5053810;28;20023;-70
2023/04/25 14:24:20;;;;;;;;;;;;;;;13.60;38.85;100460.56;5053402;28;20430;-70
2023/04/25 14:27:26;;;;;;;;;;;;;;;12.22;39.97;100469.22;5051948;28;19977;-70
2023/04/25 14:30:29;;;;;;;;;;;;;;;11.90;42.06;100471.13;5053652;28;19924;-70
2023/04/25 14:33:33;;;;;;;;;;;;;;;11.98;42.49;100475.91;5053835;28;20391;-70
2023/04/25 14:36:38;;;;;;;;;;;;;;;11.78;41.14;100472.63;5054033;28;19963;-71
2023/04/25 14:39:41;;;;;;;;;;;;;;;11.88;41.81;100472.13;5053530;28;19927;-70
2023/04/25 14:42:44;;;;;;;;;;;;;;;11.50;40.81;100475.16;5053252;28;19924;-70
2023/04/25 14:45:47;;;;;;;;;;;;;;;11.56;40.86;100480.88;5052000;28;19928;-70
2023/04/25 14:48:50;;;;;;;;;;;;;;;11.33;41.60;100473.50;5053113;28;20292;-70
2023/04/25 14:56:07;;;;;;;;;;;;;;;11.04;41.82;100493.41;5051991;28;19931;-70
2023/04/25 14:59:10;;;;;;;;;;;;;;;11.08;42.33;100484.47;5053195;28;19924;-70
2023/04/25 15:02:14;;;;;;;;;;;;;;;10.84;41.52;100481.41;5052063;28;20297;-71
2023/04/25 15:09:40;;;;;;;;;;;;;;;10.75;42.20;100476.66;5012724;28;20415;-71
2023/04/25 15:12:44;;;;;;;;;;;;;;;10.85;42.02;100483.97;5052821;28;19942;-71
2023/04/25 15:15:50;;;;;;;;;;;;;;;11.11;42.02;100490.38;5052861;28;19974;-70
2023/04/25 15:18:53;;;;;;;;;;;;;;;10.98;41.74;100483.31;5052883;28;19928;-70
2023/04/25 15:21:56;;;;;;;;;;;;;;;11.09;43.00;100481.75;5052511;28;20020;-70
2023/04/25 15:24:59;;;;;;;;;;;;;;;11.15;43.63;100483.19;5052516;28;20391;-70
2023/04/25 15:28:02;;;;;;;;;;;;;;;10.91;42.35;100490.59;5052606;28;19923;-71
2023/04/25 15:31:05;;;;;;;;;;;;;;;10.82;42.90;100488.53;5052585;28;19969;-70
2023/04/25 15:34:09;;;;;;;;;;;;;;;10.63;44.12;100488.66;5052811;28;19923;-70
2023/04/25 15:37:12;;;;;;;;;;;;;;;10.76;43.22;100486.22;5052405;28;19923;-69
2023/04/25 15:40:16;;;;;;;;;;;;;;;11.32;43.49;100493.56;5052704;28;19967;-70
2023/04/25 15:43:19;;;;;;;;;;;;;;;11.36;43.79;100489.88;5052389;28;19970;-70
2023/04/25 15:46:25;;;;;;;;;;;;;;;11.37;42.57;100496.78;5052387;28;20347;-71
2023/04/25 15:49:28;;;;;;;;;;;;;;;11.52;42.20;100489.84;5051427;28;19971;-71
2023/04/25 15:52:32;;;;;;;;;;;;;;;11.47;41.61;100496.28;5051614;28;19931;-71
2023/04/25 15:55:35;;;;;;;;;;;;;;;11.51;43.02;100498.63;5052179;28;19961;-71
2023/04/25 15:58:38;;;;;;;;;;;;;;;11.53;43.02;100506.41;5052491;28;19960;-71
2023/04/25 16:01:41;;;;;;;;;;;;;;;11.32;42.30;100500.59;5052200;28;19928;-71
2023/04/25 16:04:44;;;;;;;;;;;;;;;11.27;41.83;100500.84;5052253;28;19975;-71
2023/04/25 16:07:47;;;;;;;;;;;;;;;11.30;42.88;100511.16;5051550;28;19924;-71
2023/04/25 16:10:50;;;;;;;;;;;;;;;11.21;42.81;100513.44;5052367;28;20308;-71
2023/04/25 16:13:53;;;;;;;;;;;;;;;11.15;42.83;100512.84;5053160;28;19991;-71
2023/04/25 16:16:56;;;;;;;;;;;;;;;11.13;41.08;100509.44;5056085;28;19971;-71
2023/04/25 16:20:03;;;;;;;;;;;;;;;11.19;42.27;100510.88;5056021;28;20403;-71
2023/04/25 16:23:06;;;;;;;;;;;;;;;10.82;40.49;100515.50;5055862;28;19939;-71
2023/04/25 16:26:09;;;;;;;;;;;;;;;10.65;40.44;100510.31;5056154;28;19932;-71
2023/04/25 16:29:14;;;;;;;;;;;;;;;10.93;41.14;100517.53;5055950;28;19970;-71
2023/04/25 16:32:16;;;;;;;;;;;;;;;10.80;40.80;100517.34;5055686;28;19944;-71